Time;durP1;ratioP1;P1;durP2;ratioP2;P2;SDS_P1;SDS_P2;PMS_P1;PMS_P2;Temp;Humidity;BMP_temperature;BMP_pressure;BME280_temperature;BME280_humidity;BME280_pressure;Samples;Min_cycle;Max_cycle;Signal;HPM_P1;HPM_P2
2023/12/23 00:00:16;;;;;;;8.13;2.95;;;4.20;99.90;;;;;;4979696;28;89485;-30
2023/12/23 00:02:42;;;;;;;4.00;1.77;;;4.10;99.90;;;;;;4979773;28;90199;-30
2023/12/23 00:05:08;;;;;;;7.82;2.50;;;4.10;99.90;;;;;;4970466;28;89425;-30
2023/12/23 00:07:35;;;;;;;3.88;1.45;;;4.10;99.90;;;;;;4980109;28;90246;-29
2023/12/23 00:10:03;;;;;;;5.80;1.80;;;4.10;99.90;;;;;;4980005;28;89359;-30
2023/12/23 00:12:29;;;;;;;4.63;1.73;;;4.10;99.90;;;;;;4980269;28;90614;-29
2023/12/23 00:14:55;;;;;;;7.60;2.30;;;4.10;99.90;;;;;;4979469;28;89507;-31
2023/12/23 00:17:20;;;;;;;3.67;1.67;;;4.10;99.90;;;;;;4978865;28;89972;-31
2023/12/23 00:19:46;;;;;;;8.60;1.98;;;4.20;99.90;;;;;;4980133;28;89300;-31
2023/12/23 00:22:11;;;;;;;3.70;1.85;;;4.20;99.90;;;;;;4980077;28;90023;-30
2023/12/23 00:24:37;;;;;;;4.47;1.63;;;4.20;99.90;;;;;;4979900;28;90296;-29
2023/12/23 00:27:03;;;;;;;3.90;2.47;;;4.20;99.90;;;;;;4979739;28;90399;-31
2023/12/23 00:29:28;;;;;;;5.97;1.92;;;4.30;99.90;;;;;;4980004;28;87752;-32
2023/12/23 00:31:54;;;;;;;3.53;1.63;;;4.30;99.90;;;;;;4979910;28;90371;-32
2023/12/23 00:34:20;;;;;;;6.30;1.70;;;4.30;99.90;;;;;;4979399;28;89404;-30
2023/12/23 00:36:45;;;;;;;17.88;3.90;;;4.30;99.90;;;;;;4980850;28;89567;-31
2023/12/23 00:39:12;;;;;;;4.63;1.98;;;4.20;99.90;;;;;;4979415;28;88513;-32
2023/12/23 00:41:37;;;;;;;7.72;2.47;;;4.20;99.90;;;;;;4979854;28;90496;-28
2023/12/23 00:44:03;;;;;;;9.55;3.13;;;4.20;99.90;;;;;;4979798;28;89313;-28
2023/12/23 00:46:29;;;;;;;8.85;2.15;;;4.30;99.90;;;;;;4979705;28;90206;-32
2023/12/23 00:48:55;;;;;;;4.60;2.55;;;4.30;99.90;;;;;;4978898;28;89341;-30
2023/12/23 00:51:21;;;;;;;9.48;2.40;;;4.40;99.90;;;;;;4980002;28;88740;-31
2023/12/23 00:53:46;;;;;;;2.05;1.20;;;4.40;99.90;;;;;;4979750;28;89657;-28
2023/12/23 00:56:21;;;;;;;12.15;3.13;;;4.40;99.90;;;;;;4980114;28;89707;-30
2023/12/23 00:58:47;;;;;;;9.00;2.97;;;4.50;99.90;;;;;;4980082;28;89158;-29
2023/12/23 01:01:13;;;;;;;5.03;2.30;;;4.50;99.90;;;;;;4979530;28;90548;-28
2023/12/23 01:03:39;;;;;;;29.67;2.65;;;4.50;99.90;;;;;;4978820;28;89313;-31
2023/12/23 01:06:05;;;;;;;3.88;1.77;;;4.50;99.90;;;;;;4980205;28;89684;-30
2023/12/23 01:08:30;;;;;;;3.78;1.83;;;4.50;99.90;;;;;;4979272;28;88312;-32
2023/12/23 01:10:56;;;;;;;7.07;2.38;;;4.60;99.90;;;;;;4979111;28;90147;-28
2023/12/23 01:13:22;;;;;;;7.95;2.75;;;4.60;99.90;;;;;;4978917;28;90626;-29
2023/12/23 01:15:48;;;;;;;7.22;2.85;;;4.60;99.90;;;;;;4979193;28;90809;-28
2023/12/23 01:18:14;;;;;;;10.15;3.33;;;4.70;99.90;;;;;;4978061;28;89528;-29
2023/12/23 01:20:42;;;;;;;9.23;3.42;;;4.70;99.90;;;;;;4978866;28;90028;-33
2023/12/23 01:23:07;;;;;;;6.72;2.63;;;4.70;99.90;;;;;;4976967;28;89263;-32
2023/12/23 01:25:33;;;;;;;5.40;2.20;;;4.70;99.90;;;;;;4979393;28;90453;-31
2023/12/23 01:28:04;;;;;;;7.65;2.45;;;4.80;99.90;;;;;;4978331;28;89485;-31
2023/12/23 01:30:33;;;;;;;7.00;2.92;;;4.80;99.90;;;;;;4979655;28;89733;-32
2023/12/23 01:32:59;;;;;;;9.70;2.05;;;4.80;99.90;;;;;;4978604;28;91214;-30
2023/12/23 01:35:24;;;;;;;9.35;2.72;;;4.80;99.90;;;;;;4978941;28;89104;-30
2023/12/23 01:37:50;;;;;;;5.60;2.63;;;4.90;99.90;;;;;;4978538;28;89577;-30
2023/12/23 01:40:16;;;;;;;11.18;2.03;;;4.90;99.90;;;;;;4978004;28;90852;-30
2023/12/23 01:42:41;;;;;;;9.70;2.58;;;4.90;99.90;;;;;;4978953;28;90092;-29
2023/12/23 01:45:08;;;;;;;8.48;2.28;;;4.90;99.90;;;;;;4978751;28;89503;-32
2023/12/23 01:47:36;;;;;;;4.88;1.50;;;4.90;99.90;;;;;;4978681;28;90095;-30
2023/12/23 01:50:02;;;;;;;8.80;2.15;;;4.90;99.90;;;;;;4978903;28;90288;-31
2023/12/23 01:52:29;;;;;;;8.38;3.65;;;5.00;99.90;;;;;;4978138;28;89589;-30
2023/12/23 01:54:55;;;;;;;9.70;3.17;;;5.00;99.90;;;;;;4978042;28;89522;-30
2023/12/23 01:57:21;;;;;;;3.70;2.35;;;5.10;99.90;;;;;;4994003;28;89190;-29
2023/12/23 01:59:46;;;;;;;10.77;2.92;;;5.10;99.90;;;;;;4977892;28;89043;-30
2023/12/23 02:02:13;;;;;;;4.88;1.50;;;5.10;99.90;;;;;;4978145;28;90605;-34
2023/12/23 02:04:39;;;;;;;6.57;2.38;;;5.10;99.90;;;;;;4978820;28;90073;-28
2023/12/23 02:07:04;;;;;;;17.80;3.03;;;5.10;99.90;;;;;;4978123;28;89217;-31
2023/12/23 02:09:30;;;;;;;5.10;2.22;;;5.10;99.90;;;;;;4978808;28;90171;-30
2023/12/23 02:12:22;;;;;;;4.32;2.15;;;5.20;99.90;;;;;;4977358;28;90142;-30
2023/12/23 02:15:14;;;;;;;5.00;1.92;;;5.20;99.90;;;;;;4978248;28;88543;-30
2023/12/23 02:17:40;;;;;;;3.38;1.23;;;5.20;99.90;;;;;;4978615;28;90053;-32
2023/12/23 02:20:07;;;;;;;7.53;2.78;;;5.20;99.90;;;;;;4978759;28;90377;-31
2023/12/23 02:22:32;;;;;;;11.57;2.53;;;5.20;99.90;;;;;;4977802;28;90663;-29
2023/12/23 02:24:58;;;;;;;4.07;2.67;;;5.20;99.90;;;;;;4978005;28;90471;-31
2023/12/23 02:27:30;;;;;;;9.85;2.55;;;5.20;99.90;;;;;;4979066;28;90548;-33
2023/12/23 02:29:58;;;;;;;8.07;1.50;;;5.20;99.90;;;;;;4978590;28;90555;-31
2023/12/23 02:32:25;;;;;;;3.60;2.03;;;5.30;99.90;;;;;;4979108;28;89451;-32
2023/12/23 02:34:52;;;;;;;7.28;2.15;;;5.30;99.90;;;;;;4978161;28;90955;-30
2023/12/23 02:37:18;;;;;;;4.85;2.45;;;5.30;99.90;;;;;;4978165;28;89859;-28
2023/12/23 02:39:43;;;;;;;7.03;2.53;;;5.30;99.90;;;;;;4980923;28;90621;-29
2023/12/23 02:42:09;;;;;;;3.05;1.98;;;5.30;99.90;;;;;;4980443;28;89542;-30
2023/12/23 02:44:35;;;;;;;3.78;1.38;;;5.30;99.90;;;;;;4981900;28;90017;-32
2023/12/23 02:47:01;;;;;;;10.90;2.42;;;5.30;99.90;;;;;;4981066;28;88936;-29
2023/12/23 02:49:26;;;;;;;14.93;1.95;;;5.30;99.90;;;;;;4980827;28;90265;-31
2023/12/23 02:51:52;;;;;;;6.93;1.42;;;5.30;99.90;;;;;;4981048;28;91129;-30
2023/12/23 02:54:17;;;;;;;5.05;2.35;;;5.30;99.90;;;;;;4981315;28;90385;-30
2023/12/23 02:56:43;;;;;;;3.30;1.60;;;5.30;99.90;;;;;;4982178;28;88154;-30
2023/12/23 02:59:08;;;;;;;4.43;1.77;;;5.30;99.90;;;;;;4980616;28;90331;-31
2023/12/23 03:01:34;;;;;;;11.30;3.08;;;5.30;99.90;;;;;;4981611;28;89378;-31
2023/12/23 03:03:59;;;;;;;5.65;2.55;;;5.30;99.90;;;;;;4981283;28;89875;-30
2023/12/23 03:06:25;;;;;;;6.57;2.03;;;5.30;99.90;;;;;;4981454;28;90209;-31
2023/12/23 03:08:51;;;;;;;8.65;3.00;;;5.30;99.90;;;;;;4981304;28;89162;-30
2023/12/23 03:11:16;;;;;;;3.20;1.23;;;5.30;99.90;;;;;;4980293;28;90328;-30
2023/12/23 03:13:42;;;;;;;6.93;1.83;;;5.30;99.90;;;;;;4981985;28;89527;-30
2023/12/23 03:16:18;;;;;;;1.50;1.13;;;5.30;99.90;;;;;;4979854;28;89957;-32
2023/12/23 03:18:44;;;;;;;4.85;1.10;;;5.30;99.90;;;;;;4981102;28;89948;-31
2023/12/23 03:21:10;;;;;;;2.95;1.70;;;5.20;99.90;;;;;;4981187;28;89774;-30
2023/12/23 03:23:35;;;;;;;10.27;2.55;;;5.20;99.90;;;;;;4980549;28;89502;-30
2023/12/23 03:26:01;;;;;;;8.57;1.83;;;5.20;99.90;;;;;;4981214;28;89996;-32
2023/12/23 03:28:27;;;;;;;3.53;1.58;;;5.20;99.90;;;;;;4980171;28;90170;-31
2023/12/23 03:30:52;;;;;;;1.15;0.93;;;5.20;99.90;;;;;;4980990;28;89949;-32
2023/12/23 03:33:18;;;;;;;4.93;2.22;;;5.20;99.90;;;;;;4980963;28;89849;-28
2023/12/23 03:35:43;;;;;;;3.00;1.48;;;5.20;99.90;;;;;;4980515;28;88132;-32
2023/12/23 03:38:09;;;;;;;2.92;1.58;;;5.20;99.90;;;;;;4980900;28;90247;-29
2023/12/23 03:40:35;;;;;;;7.68;1.65;;;5.20;99.90;;;;;;4979084;28;90720;-28
2023/12/23 03:43:00;;;;;;;6.80;2.33;;;5.20;99.90;;;;;;4981054;28;89547;-32
2023/12/23 03:45:26;;;;;;;2.67;0.98;;;5.10;99.90;;;;;;4980394;28;87693;-30
2023/12/23 03:47:52;;;;;;;3.95;1.98;;;5.20;99.90;;;;;;4980594;28;90796;-30
2023/12/23 03:50:17;;;;;;;3.20;1.20;;;5.20;99.90;;;;;;4979220;28;90406;-31
2023/12/23 03:52:43;;;;;;;13.80;3.15;;;5.10;99.90;;;;;;4980291;28;89681;-31
2023/12/23 03:55:11;;;;;;;3.95;1.67;;;5.20;99.90;;;;;;4980513;28;88296;-29
2023/12/23 03:57:36;;;;;;;1.50;0.90;;;5.10;99.90;;;;;;4980941;28;90224;-30
2023/12/23 04:00:04;;;;;;;12.38;1.77;;;5.10;99.90;;;;;;4979811;28;89927;-30
2023/12/23 04:02:30;;;;;;;4.07;1.67;;;5.10;99.90;;;;;;4980654;28;89236;-29
2023/12/23 04:04:55;;;;;;;8.80;1.50;;;5.10;99.90;;;;;;4979073;28;88690;-29
2023/12/23 04:07:21;;;;;;;2.65;2.08;;;5.10;99.90;;;;;;4980433;28;90447;-30
2023/12/23 04:09:47;;;;;;;1.05;0.93;;;5.10;99.90;;;;;;4980216;28;90022;-31
2023/12/23 04:12:12;;;;;;;5.97;0.98;;;5.10;99.90;;;;;;4979876;28;89545;-29
2023/12/23 04:14:40;;;;;;;1.42;1.20;;;5.10;99.90;;;;;;4980258;28;89732;-31
2023/12/23 04:17:06;;;;;;;2.63;1.92;;;5.10;99.90;;;;;;4980041;28;90137;-29
2023/12/23 04:19:31;;;;;;;1.25;1.02;;;5.10;99.90;;;;;;4979471;28;90265;-31
2023/12/23 04:21:58;;;;;;;10.68;2.17;;;5.10;99.90;;;;;;4980319;28;89683;-29
2023/12/23 04:24:26;;;;;;;4.78;1.30;;;5.10;99.90;;;;;;4980148;28;88270;-29
2023/12/23 04:26:54;;;;;;;3.90;1.65;;;5.20;99.90;;;;;;4980035;28;89736;-32
2023/12/23 04:29:20;;;;;;;3.05;1.65;;;5.20;99.90;;;;;;4977188;28;91054;-30
2023/12/23 04:31:46;;;;;;;1.70;0.95;;;5.10;99.90;;;;;;4980107;28;90013;-33
2023/12/23 04:34:11;;;;;;;4.47;1.60;;;5.20;99.90;;;;;;4979332;28;88830;-32
2023/12/23 04:36:37;;;;;;;2.55;1.23;;;5.20;99.90;;;;;;4980594;28;90115;-30
2023/12/23 04:39:05;;;;;;;3.05;1.15;;;5.20;99.90;;;;;;4979329;28;90618;-32
2023/12/23 04:41:31;;;;;;;7.88;1.02;;;5.20;99.90;;;;;;4979507;28;89166;-31
2023/12/23 04:43:57;;;;;;;2.15;1.10;;;5.20;99.90;;;;;;4979515;28;90379;-30
2023/12/23 04:46:23;;;;;;;2.70;1.05;;;5.20;99.90;;;;;;4980434;28;89932;-28
2023/12/23 04:48:49;;;;;;;2.72;1.33;;;5.20;99.90;;;;;;4979010;28;89345;-31
2023/12/23 04:51:15;;;;;;;2.45;1.02;;;5.30;99.90;;;;;;4979889;28;89396;-31
2023/12/23 04:53:40;;;;;;;2.30;1.02;;;5.30;99.90;;;;;;4978950;28;90017;-29
2023/12/23 04:56:07;;;;;;;2.17;1.98;;;5.30;99.90;;;;;;4979892;28;89757;-31
2023/12/23 04:58:32;;;;;;;7.05;1.25;;;5.30;99.90;;;;;;4979457;28;89691;-30
2023/12/23 05:00:58;;;;;;;1.08;0.98;;;5.30;99.90;;;;;;4979463;28;90196;-31
2023/12/23 05:03:23;;;;;;;0.85;0.85;;;5.30;99.90;;;;;;4979295;28;88079;-29
2023/12/23 05:05:49;;;;;;;2.10;1.15;;;5.30;99.90;;;;;;4979196;28;90504;-31
2023/12/23 05:08:16;;;;;;;2.33;1.42;;;5.30;99.90;;;;;;4979220;28;89750;-32
2023/12/23 05:10:44;;;;;;;6.47;1.33;;;5.30;99.90;;;;;;4973712;28;89642;-30
2023/12/23 05:13:10;;;;;;;3.88;1.38;;;5.30;99.90;;;;;;4978883;28;88428;-32
2023/12/23 05:15:35;;;;;;;6.82;1.38;;;5.30;99.90;;;;;;4979528;28;90257;-28
2023/12/23 05:18:01;;;;;;;2.53;1.33;;;5.30;99.90;;;;;;4978548;28;90633;-29
2023/12/23 05:20:26;;;;;;;2.13;0.88;;;5.30;99.90;;;;;;4979136;28;90559;-32
2023/12/23 05:22:52;;;;;;;5.05;1.23;;;5.20;99.90;;;;;;4979611;28;89753;-32
2023/12/23 05:25:18;;;;;;;6.15;1.00;;;5.30;99.90;;;;;;4978730;28;90156;-30
2023/12/23 05:27:44;;;;;;;2.65;0.70;;;5.30;99.90;;;;;;4979931;28;90007;-32
2023/12/23 05:30:10;;;;;;;2.03;0.80;;;5.30;99.90;;;;;;4978859;28;89643;-31
2023/12/23 05:32:36;;;;;;;1.50;0.80;;;5.20;99.90;;;;;;4979461;28;89865;-31
2023/12/23 05:35:02;;;;;;;0.95;0.90;;;5.30;99.90;;;;;;4979237;28;90199;-29
2023/12/23 05:37:28;;;;;;;1.90;1.33;;;5.20;99.90;;;;;;4978612;28;90366;-29
2023/12/23 05:39:54;;;;;;;2.08;1.65;;;5.20;99.90;;;;;;4978931;28;88869;-29
2023/12/23 05:42:19;;;;;;;1.08;0.98;;;5.30;99.90;;;;;;4978609;28;89740;-29
2023/12/23 05:44:45;;;;;;;0.90;0.90;;;5.20;99.90;;;;;;4979569;28;88329;-33
2023/12/23 05:47:10;;;;;;;1.05;0.70;;;5.20;99.90;;;;;;4978746;28;89679;-32
2023/12/23 05:49:37;;;;;;;2.67;1.20;;;5.20;99.90;;;;;;4978336;28;89520;-31
2023/12/23 05:52:02;;;;;;;1.20;0.93;;;5.20;99.90;;;;;;4979700;28;89635;-31
2023/12/23 05:54:28;;;;;;;0.75;0.60;;;5.20;99.90;;;;;;4978372;28;90309;-31
2023/12/23 05:56:54;;;;;;;1.40;0.80;;;5.20;99.90;;;;;;4978845;28;89458;-29
2023/12/23 05:59:19;;;;;;;0.68;0.55;;;5.20;99.90;;;;;;4979190;28;89416;-29
2023/12/23 06:01:45;;;;;;;1.83;0.73;;;5.20;99.90;;;;;;4978713;28;88798;-31
2023/12/23 06:04:10;;;;;;;0.70;0.70;;;5.20;99.90;;;;;;4979080;28;90915;-30
2023/12/23 06:06:36;;;;;;;0.55;0.55;;;5.30;99.90;;;;;;4978157;28;89467;-30
2023/12/23 06:09:03;;;;;;;1.45;0.70;;;5.20;99.90;;;;;;4979011;28;90301;-31
2023/12/23 06:11:28;;;;;;;0.80;0.80;;;5.20;99.90;;;;;;4978300;28;89088;-30
2023/12/23 06:13:54;;;;;;;1.50;0.52;;;5.20;99.90;;;;;;4978754;28;89817;-31
2023/12/23 06:16:20;;;;;;;0.52;0.52;;;5.20;99.90;;;;;;4982209;28;89725;-30
2023/12/23 06:18:45;;;;;;;0.95;0.73;;;5.20;99.90;;;;;;4982074;28;89813;-29
2023/12/23 06:21:11;;;;;;;0.57;0.57;;;5.20;99.90;;;;;;4982027;28;88760;-30
2023/12/23 06:23:36;;;;;;;0.95;0.77;;;5.20;99.90;;;;;;4981700;28;90432;-29
2023/12/23 06:26:03;;;;;;;15.75;2.05;;;5.20;99.90;;;;;;4981193;28;89107;-32
2023/12/23 06:28:28;;;;;;;0.40;0.40;;;5.20;99.90;;;;;;4981506;28;89118;-30
2023/12/23 06:30:54;;;;;;;0.95;0.40;;;5.20;99.90;;;;;;4981164;28;88628;-30
2023/12/23 06:33:19;;;;;;;0.65;0.50;;;5.20;99.90;;;;;;4982479;28;90755;-31
2023/12/23 06:35:45;;;;;;;0.50;0.50;;;5.20;99.90;;;;;;4981394;28;88962;-31
2023/12/23 06:38:13;;;;;;;2.15;0.50;;;5.20;99.90;;;;;;4981399;28;89793;-29
2023/12/23 06:40:39;;;;;;;0.90;0.70;;;5.20;99.90;;;;;;4981019;28;87697;-30
2023/12/23 06:43:04;;;;;;;0.80;0.70;;;5.30;99.90;;;;;;4981555;28;90558;-31
2023/12/23 06:45:30;;;;;;;0.60;0.60;;;5.30;99.90;;;;;;4981243;28;89633;-30
2023/12/23 06:47:56;;;;;;;0.60;0.60;;;5.20;99.90;;;;;;4981260;28;88975;-28
2023/12/23 06:50:21;;;;;;;0.40;0.40;;;5.10;99.90;;;;;;4981879;28;89016;-29
2023/12/23 06:52:47;;;;;;;0.73;0.68;;;5.10;99.90;;;;;;4982359;28;90021;-29
2023/12/23 06:55:13;;;;;;;1.00;0.70;;;5.10;99.90;;;;;;4980111;28;90779;-29
2023/12/23 06:57:39;;;;;;;0.50;0.50;;;5.20;99.90;;;;;;4982097;28;89975;-28
2023/12/23 07:00:07;;;;;;;0.65;0.50;;;5.30;99.90;;;;;;4980683;28;88827;-30
2023/12/23 07:02:32;;;;;;;0.50;0.50;;;5.30;99.90;;;;;;4981174;28;92052;-29
2023/12/23 07:04:58;;;;;;;0.50;0.50;;;5.20;99.90;;;;;;4981004;28;89701;-29
2023/12/23 07:07:24;;;;;;;0.65;0.65;;;5.30;99.90;;;;;;4981460;28;91132;-28
2023/12/23 07:09:49;;;;;;;0.98;0.60;;;5.20;99.90;;;;;;4980954;28;88040;-32
2023/12/23 07:12:15;;;;;;;0.50;0.50;;;5.20;99.90;;;;;;4981347;28;90470;-31
2023/12/23 07:14:41;;;;;;;0.95;0.70;;;5.20;99.90;;;;;;4980588;28;89925;-31
2023/12/23 07:17:07;;;;;;;0.70;0.70;;;5.20;99.90;;;;;;4981092;28;90001;-28
2023/12/23 07:19:32;;;;;;;0.80;0.70;;;5.30;99.90;;;;;;4980945;28;89996;-31
2023/12/23 07:21:58;;;;;;;1.00;0.65;;;5.20;99.90;;;;;;4981315;28;90203;-29
2023/12/23 07:24:24;;;;;;;0.52;0.52;;;5.10;99.90;;;;;;4980925;28;89539;-30
2023/12/23 07:26:49;;;;;;;0.95;0.82;;;5.10;99.90;;;;;;4980649;28;89623;-30
2023/12/23 07:29:16;;;;;;;1.15;0.95;;;5.10;99.90;;;;;;4980447;28;87854;-31
2023/12/23 07:31:42;;;;;;;0.73;0.73;;;5.10;99.90;;;;;;4980486;28;91185;-29
2023/12/23 07:34:08;;;;;;;1.45;1.35;;;5.10;99.90;;;;;;4974358;28;90243;-29
2023/12/23 07:36:33;;;;;;;0.93;0.70;;;5.00;99.90;;;;;;4980611;28;88893;-29
2023/12/23 07:38:59;;;;;;;0.98;0.98;;;5.00;99.90;;;;;;4980384;28;89886;-33
2023/12/23 07:41:25;;;;;;;0.65;0.65;;;5.00;99.90;;;;;;5016202;22;90082;-30
2023/12/23 07:43:50;;;;;;;1.63;1.35;;;5.00;99.90;;;;;;4984595;28;90595;-30
2023/12/23 07:46:16;;;;;;;0.80;0.80;;;5.00;99.90;;;;;;4984631;28;90462;-26
2023/12/23 07:48:41;;;;;;;1.13;1.02;;;5.00;99.90;;;;;;4985186;28;89325;-30
2023/12/23 07:51:08;;;;;;;0.77;0.68;;;4.90;99.90;;;;;;4984166;28;90335;-31
2023/12/23 07:53:34;;;;;;;0.80;0.80;;;4.90;99.90;;;;;;4986141;28;89579;-28
2023/12/23 07:56:00;;;;;;;0.70;0.70;;;4.90;99.90;;;;;;4983045;28;90304;-29
2023/12/23 07:58:26;;;;;;;1.60;1.17;;;4.80;99.90;;;;;;4986540;28;87880;-29
2023/12/23 08:00:52;;;;;;;1.92;1.83;;;4.80;99.90;;;;;;4983155;28;90240;-29
2023/12/23 08:03:18;;;;;;;0.60;0.52;;;4.80;99.90;;;;;;4984420;28;89701;-32
2023/12/23 08:05:43;;;;;;;0.73;0.60;;;4.80;99.90;;;;;;4984630;28;89708;-30
2023/12/23 08:08:10;;;;;;;1.45;1.20;;;4.70;99.90;;;;;;4985081;28;90245;-28
2023/12/23 08:10:39;;;;;;;1.42;1.15;;;4.70;99.90;;;;;;4988977;28;89824;-28
2023/12/23 08:13:06;;;;;;;1.73;1.00;;;4.70;99.90;;;;;;4990580;28;89396;-29
2023/12/23 08:15:32;;;;;;;0.70;0.70;;;4.70;99.90;;;;;;4992010;28;89598;-29
2023/12/23 08:17:58;;;;;;;1.45;0.80;;;4.70;99.90;;;;;;4990199;28;88226;-29
2023/12/23 08:20:24;;;;;;;2.15;1.45;;;4.70;99.90;;;;;;4992862;28;90019;-32
2023/12/23 08:22:50;;;;;;;1.00;0.80;;;4.60;99.90;;;;;;4988163;28;90040;-32
2023/12/23 08:25:16;;;;;;;0.57;0.57;;;4.70;99.90;;;;;;4993292;28;88936;-29
2023/12/23 08:27:41;;;;;;;1.42;1.33;;;4.70;99.90;;;;;;4991381;28;87978;-30
2023/12/23 08:30:08;;;;;;;1.10;0.90;;;4.70;99.90;;;;;;4985343;28;90314;-30
2023/12/23 08:32:34;;;;;;;0.75;0.70;;;4.70;99.90;;;;;;4981679;28;90247;-29
2023/12/23 08:35:00;;;;;;;1.15;0.80;;;4.70;99.90;;;;;;4986137;28;91672;-29
2023/12/23 08:37:25;;;;;;;0.73;0.68;;;4.70;99.90;;;;;;4996260;28;90083;-30
2023/12/23 08:39:51;;;;;;;3.72;0.80;;;4.70;99.90;;;;;;4997515;28;89449;-29
2023/12/23 08:42:17;;;;;;;1.55;0.88;;;4.70;99.90;;;;;;4995040;28;90364;-30
2023/12/23 08:44:43;;;;;;;0.70;0.70;;;4.70;99.90;;;;;;4997195;28;90160;-31
2023/12/23 08:47:08;;;;;;;0.55;0.55;;;4.70;99.90;;;;;;4995286;28;89048;-30
2023/12/23 08:49:34;;;;;;;0.50;0.50;;;4.70;99.90;;;;;;4996675;28;89490;-31
2023/12/23 08:52:00;;;;;;;0.70;0.70;;;4.70;99.90;;;;;;4994214;28;89056;-29
2023/12/23 08:54:25;;;;;;;0.80;0.80;;;4.70;99.90;;;;;;4996843;28;90014;-29
2023/12/23 08:56:51;;;;;;;0.75;0.75;;;4.70;99.90;;;;;;4994647;28;89496;-31
2023/12/23 08:59:17;;;;;;;0.60;0.60;;;4.70;99.90;;;;;;4995695;28;90319;-30
2023/12/23 09:01:44;;;;;;;0.70;0.70;;;4.70;99.90;;;;;;4995066;28;89545;-31
2023/12/23 09:04:10;;;;;;;0.50;0.50;;;4.70;99.90;;;;;;4996244;28;89602;-28
2023/12/23 09:06:35;;;;;;;0.85;0.68;;;4.80;99.90;;;;;;4994331;28;90047;-30
2023/12/23 09:09:01;;;;;;;0.63;0.52;;;4.80;99.90;;;;;;4996887;28;90221;-30
2023/12/23 09:11:27;;;;;;;0.80;0.80;;;4.80;99.90;;;;;;4992890;28;89653;-28
2023/12/23 09:13:53;;;;;;;0.98;0.88;;;4.80;99.90;;;;;;4984746;28;89057;-33
2023/12/23 09:16:19;;;;;;;0.50;0.50;;;4.80;99.90;;;;;;4993839;28;88192;-27
2023/12/23 09:18:44;;;;;;;0.45;0.45;;;4.80;99.90;;;;;;4995947;28;89814;-31
2023/12/23 09:21:10;;;;;;;0.50;0.50;;;4.80;99.90;;;;;;4988265;28;90571;-31
2023/12/23 09:23:35;;;;;;;0.70;0.70;;;4.90;99.90;;;;;;4995471;28;89414;-32
2023/12/23 09:26:01;;;;;;;0.82;0.60;;;4.90;99.90;;;;;;4995231;28;88433;-29
2023/12/23 09:28:27;;;;;;;0.60;0.60;;;4.90;99.90;;;;;;4995539;28;90120;-29
2023/12/23 09:30:52;;;;;;;0.57;0.57;;;4.90;99.90;;;;;;4996105;28;89850;-28
2023/12/23 09:33:18;;;;;;;0.68;0.68;;;4.90;99.90;;;;;;4997319;28;89880;-29
2023/12/23 09:35:43;;;;;;;0.95;0.95;;;4.90;99.90;;;;;;4993843;28;89203;-29
2023/12/23 09:38:12;;;;;;;1.05;0.77;;;4.90;99.90;;;;;;4996421;28;89190;-30
2023/12/23 09:40:38;;;;;;;0.57;0.57;;;4.80;99.90;;;;;;5009050;28;89353;-30
2023/12/23 09:43:06;;;;;;;1.02;1.02;;;4.80;99.90;;;;;;4977045;28;90038;-32
2023/12/23 09:45:36;;;;;;;0.57;0.57;;;4.90;99.90;;;;;;4985154;28;89084;-30
2023/12/23 09:48:03;;;;;;;2.45;0.93;;;4.90;99.90;;;;;;4986545;28;90278;-29
2023/12/23 09:50:28;;;;;;;2.83;1.88;;;4.90;99.90;;;;;;4991897;28;90707;-31
2023/12/23 09:52:58;;;;;;;2.00;1.40;;;4.90;99.90;;;;;;4996672;28;89709;-29
2023/12/23 09:55:25;;;;;;;1.35;1.00;;;4.90;99.90;;;;;;4994840;28;90576;-30
2023/12/23 09:57:50;;;;;;;1.48;1.38;;;4.90;99.90;;;;;;4996638;28;89441;-32
2023/12/23 10:00:16;;;;;;;1.90;1.52;;;4.90;99.90;;;;;;4990514;28;89624;-29
2023/12/23 10:02:42;;;;;;;1.92;1.77;;;4.90;99.90;;;;;;4990219;28;89676;-28
2023/12/23 10:05:08;;;;;;;2.38;2.20;;;4.90;99.90;;;;;;4988205;28;89423;-31
2023/12/23 10:07:33;;;;;;;1.10;1.02;;;5.00;99.90;;;;;;4981064;28;90745;-30
2023/12/23 10:09:59;;;;;;;1.40;1.30;;;5.00;99.90;;;;;;4984732;28;90405;-28
2023/12/23 10:12:25;;;;;;;1.25;0.93;;;5.00;99.90;;;;;;4986856;28;89527;-31
2023/12/23 10:14:50;;;;;;;0.60;0.60;;;5.00;99.90;;;;;;4993472;28;89005;-29
2023/12/23 10:17:19;;;;;;;1.27;1.17;;;5.00;99.90;;;;;;5000351;28;90331;-30
2023/12/23 10:19:47;;;;;;;0.77;0.77;;;5.00;99.90;;;;;;4999101;28;89934;-29
2023/12/23 10:22:12;;;;;;;1.00;1.00;;;5.00;99.90;;;;;;4999139;28;91166;-29
2023/12/23 10:24:38;;;;;;;0.98;0.70;;;5.00;99.90;;;;;;4999064;28;89426;-29
2023/12/23 10:27:04;;;;;;;0.93;0.93;;;5.10;99.90;;;;;;4999080;28;90343;-30
2023/12/23 10:29:33;;;;;;;1.27;1.08;;;5.10;99.90;;;;;;4998889;28;89581;-28
2023/12/23 10:32:04;;;;;;;1.08;0.95;;;5.10;99.90;;;;;;4999434;28;89560;-30
2023/12/23 10:34:43;;;;;;;1.50;1.20;;;5.10;99.90;;;;;;4997375;28;88417;-29
2023/12/23 10:37:12;;;;;;;0.90;0.85;;;5.10;99.90;;;;;;4999014;28;90480;-29
2023/12/23 10:39:49;;;;;;;1.38;0.98;;;5.20;99.90;;;;;;4986718;28;89459;-30
2023/12/23 10:42:20;;;;;;;1.02;0.93;;;5.20;99.90;;;;;;4982724;28;90587;-32
2023/12/23 10:44:47;;;;;;;1.30;1.20;;;5.20;99.90;;;;;;4980714;28;89085;-30
2023/12/23 10:47:15;;;;;;;1.63;1.40;;;5.20;99.90;;;;;;4983208;28;90038;-31
2023/12/23 10:49:45;;;;;;;0.90;0.90;;;5.20;99.90;;;;;;4998958;28;89776;-31
2023/12/23 10:52:13;;;;;;;1.38;1.10;;;5.30;99.90;;;;;;4998538;28;90380;-28
2023/12/23 10:54:39;;;;;;;2.58;1.70;;;5.30;99.90;;;;;;4999716;28;89106;-31
2023/12/23 10:57:05;;;;;;;1.48;1.30;;;5.30;99.90;;;;;;4997531;28;91273;-29
2023/12/23 10:59:31;;;;;;;1.08;0.98;;;5.30;99.90;;;;;;4998082;28;90902;-30
2023/12/23 11:01:57;;;;;;;1.63;1.52;;;5.30;99.90;;;;;;4996911;28;89164;-29
2023/12/23 11:04:27;;;;;;;2.88;1.00;;;5.40;99.90;;;;;;4997875;28;89731;-33
2023/12/23 11:06:55;;;;;;;2.50;1.67;;;5.40;99.90;;;;;;4998645;28;90522;-29
2023/12/23 11:09:24;;;;;;;2.25;1.77;;;5.40;99.90;;;;;;4998803;28;89797;-30
2023/12/23 11:11:50;;;;;;;1.20;1.20;;;5.40;99.90;;;;;;4997354;28;89902;-32
2023/12/23 11:14:15;;;;;;;1.25;1.10;;;5.40;99.90;;;;;;4997524;28;88792;-29
2023/12/23 11:16:42;;;;;;;1.15;0.93;;;5.40;99.90;;;;;;4997466;28;90681;-30
2023/12/23 11:19:08;;;;;;;0.90;0.90;;;5.40;99.90;;;;;;4997573;28;89112;-30
2023/12/23 11:21:37;;;;;;;2.88;1.25;;;5.50;99.90;;;;;;4996853;28;89407;-29
2023/12/23 11:24:36;;;;;;;1.70;1.60;;;5.50;99.90;;;;;;4987362;28;89230;-29
2023/12/23 11:27:01;;;;;;;1.63;0.80;;;5.50;99.90;;;;;;4970956;28;89940;-28
2023/12/23 11:29:28;;;;;;;0.60;0.60;;;5.50;99.90;;;;;;4992188;28;89660;-32
2023/12/23 11:32:13;;;;;;;14.05;2.72;;;5.50;99.90;;;;;;4979724;28;89343;-30
2023/12/23 11:34:39;;;;;;;1.50;1.20;;;5.50;99.90;;;;;;4978581;28;88384;-29
2023/12/23 11:37:05;;;;;;;3.95;3.10;;;5.50;99.90;;;;;;4979204;28;90080;-30
2023/12/23 11:39:31;;;;;;;1.45;1.10;;;5.50;99.90;;;;;;4991681;28;89229;-32
2023/12/23 11:41:58;;;;;;;1.17;1.13;;;5.60;99.90;;;;;;4990818;28;89850;-34
2023/12/23 11:44:25;;;;;;;1.33;1.23;;;5.50;99.90;;;;;;4985158;28;89525;-31
2023/12/23 11:46:54;;;;;;;1.50;1.38;;;5.50;99.90;;;;;;4990626;28;91517;-31
2023/12/23 11:49:20;;;;;;;3.20;2.15;;;5.60;99.90;;;;;;4982676;28;90581;-31
2023/12/23 11:51:45;;;;;;;2.45;1.52;;;5.60;99.90;;;;;;4990456;28;90770;-32
2023/12/23 11:54:12;;;;;;;2.03;1.90;;;5.60;99.90;;;;;;4994692;28;90105;-29
2023/12/23 11:56:38;;;;;;;2.45;1.80;;;5.60;99.90;;;;;;4981038;28;90434;-30
2023/12/23 11:59:05;;;;;;;1.77;1.40;;;5.60;99.90;;;;;;4991308;28;90027;-31
2023/12/23 12:01:33;;;;;;;2.72;1.83;;;5.60;99.90;;;;;;4986037;28;89823;-28
2023/12/23 12:03:58;;;;;;;1.95;1.85;;;5.70;99.90;;;;;;4993354;28;88079;-31
2023/12/23 12:06:25;;;;;;;2.72;2.28;;;5.70;99.90;;;;;;4991496;28;90390;-28
2023/12/23 12:08:50;;;;;;;1.92;1.73;;;5.70;99.90;;;;;;4994574;28;89730;-28
2023/12/23 12:11:17;;;;;;;7.32;1.65;;;5.80;99.90;;;;;;4987828;28;89425;-29
2023/12/23 12:13:45;;;;;;;2.20;1.80;;;5.80;99.90;;;;;;4993651;28;88443;-32
2023/12/23 12:16:11;;;;;;;4.88;2.03;;;5.90;99.90;;;;;;4989198;28;90205;-30
2023/12/23 12:18:39;;;;;;;2.03;1.45;;;5.90;99.90;;;;;;4992645;28;89706;-30
2023/12/23 12:21:05;;;;;;;4.78;2.10;;;6.00;99.90;;;;;;4990090;28;89273;-30
2023/12/23 12:23:31;;;;;;;1.95;1.85;;;6.10;99.90;;;;;;4994646;28;89670;-31
2023/12/23 12:25:57;;;;;;;3.20;1.90;;;6.10;99.90;;;;;;4985396;28;89384;-30
2023/12/23 12:28:23;;;;;;;3.47;2.17;;;6.20;99.90;;;;;;4992584;28;89733;-31
2023/12/23 12:30:48;;;;;;;5.57;3.17;;;6.20;99.90;;;;;;4996281;28;89759;-29
2023/12/23 12:33:17;;;;;;;4.07;2.35;;;6.30;99.90;;;;;;4996658;28;89819;-29
2023/12/23 12:35:43;;;;;;;3.42;2.05;;;6.40;99.90;;;;;;4996690;28;90210;-28
2023/12/23 12:38:09;;;;;;;3.13;2.72;;;6.60;99.90;;;;;;4987579;28;91506;-31
2023/12/23 12:40:35;;;;;;;4.72;2.00;;;6.60;99.90;;;;;;4976509;28;90574;-29
2023/12/23 12:43:05;;;;;;;3.22;2.15;;;6.70;99.90;;;;;;4978270;28;89257;-32
2023/12/23 12:45:36;;;;;;;7.40;2.88;;;6.80;99.90;;;;;;4977539;28;89524;-29
2023/12/23 12:48:06;;;;;;;11.43;4.13;;;6.80;99.90;;;;;;4975246;28;88711;-29
2023/12/23 12:50:31;;;;;;;6.10;2.17;;;7.00;99.90;;;;;;4977520;28;89019;-32